createdAt,value
2023-12-18T00:00:44.744Z,97.96
2023-12-18T00:01:44.713Z,97.96
2023-12-18T00:02:44.721Z,97.96
2023-12-18T00:03:44.793Z,97.96
2023-12-18T00:04:44.662Z,97.96
2023-12-18T00:05:44.900Z,97.96
2023-12-18T00:06:44.712Z,97.96
2023-12-18T00:07:44.758Z,97.96
2023-12-18T00:08:44.619Z,97.96
2023-12-18T00:09:44.632Z,97.96
2023-12-18T00:10:44.592Z,97.96
2023-12-18T00:11:44.605Z,97.96
2023-12-18T00:12:44.642Z,97.86
2023-12-18T00:13:44.544Z,97.91
2023-12-18T00:14:44.548Z,97.80
2023-12-18T00:15:44.610Z,97.80
2023-12-18T00:16:44.504Z,97.80
2023-12-18T00:17:44.898Z,97.80
2023-12-18T00:18:44.653Z,97.69
2023-12-18T00:19:44.596Z,97.80
2023-12-18T00:20:44.468Z,97.69
2023-12-18T00:21:44.485Z,97.80
2023-12-18T00:22:44.426Z,97.80
2023-12-18T00:23:44.424Z,97.80
2023-12-18T00:24:44.463Z,97.69
2023-12-18T00:25:44.408Z,97.63
2023-12-18T00:26:44.376Z,97.63
2023-12-18T00:27:47.004Z,97.53
2023-12-18T00:28:44.375Z,97.53
2023-12-18T00:29:44.337Z,97.58
2023-12-18T00:30:44.463Z,97.58
2023-12-18T00:31:44.310Z,97.58
2023-12-18T00:32:44.367Z,97.68
2023-12-18T00:33:44.394Z,97.68
2023-12-18T00:34:44.334Z,97.78
2023-12-18T00:35:44.284Z,97.78
2023-12-18T00:36:44.321Z,97.89
2023-12-18T00:37:44.511Z,97.89
2023-12-18T00:38:44.289Z,97.89
2023-12-18T00:39:44.262Z,97.89
2023-12-18T00:40:44.232Z,97.89
2023-12-18T00:41:44.237Z,97.99
2023-12-18T00:42:44.258Z,97.89
2023-12-18T00:43:44.176Z,97.99
2023-12-18T00:44:44.168Z,97.99
2023-12-18T00:45:44.188Z,97.89
2023-12-18T00:46:44.134Z,97.99
2023-12-18T00:47:44.436Z,97.99
2023-12-18T00:48:44.192Z,97.99
2023-12-18T00:49:44.256Z,97.89
2023-12-18T00:50:44.119Z,97.99
2023-12-18T00:51:44.070Z,97.99
2023-12-18T00:52:44.094Z,97.99
2023-12-18T00:53:44.043Z,97.99
2023-12-18T00:54:44.128Z,98.10
2023-12-18T00:55:44.096Z,98.10
2023-12-18T00:56:44.032Z,98.05
2023-12-18T00:57:44.408Z,98.10
2023-12-18T00:58:44.020Z,98.05
2023-12-18T00:59:43.987Z,98.05
2023-12-18T01:00:44.043Z,98.05
2023-12-18T01:01:43.971Z,98.05
2023-12-18T01:02:43.978Z,98.05
2023-12-18T01:03:43.997Z,98.05
2023-12-18T01:04:43.984Z,98.05
2023-12-18T01:05:43.896Z,98.16
2023-12-18T01:06:44.010Z,98.05
2023-12-18T01:07:44.046Z,98.16
2023-12-18T01:08:43.848Z,98.16
2023-12-18T01:09:43.893Z,98.05
2023-12-18T01:10:43.821Z,98.05
2023-12-18T01:11:43.833Z,98.05
2023-12-18T01:12:43.847Z,98.16
2023-12-18T01:13:43.841Z,98.05
2023-12-18T01:14:43.802Z,98.05
2023-12-18T01:15:43.847Z,98.05
2023-12-18T01:16:43.762Z,98.05
2023-12-18T01:17:43.956Z,98.16
2023-12-18T01:18:43.843Z,98.05
2023-12-18T01:19:43.852Z,98.05
2023-12-18T01:20:43.700Z,97.95
2023-12-18T01:21:43.761Z,97.95
2023-12-18T01:22:45.162Z,98.05
2023-12-18T01:23:43.676Z,97.95
2023-12-18T01:24:43.722Z,97.95
2023-12-18T01:25:43.649Z,97.95
2023-12-18T01:26:43.637Z,97.95
2023-12-18T01:27:43.954Z,97.95
2023-12-18T01:28:43.697Z,97.95
2023-12-18T01:29:43.607Z,97.95
2023-12-18T01:30:43.676Z,97.99
2023-12-18T01:31:43.563Z,97.99
2023-12-18T01:32:43.634Z,97.99
2023-12-18T01:33:43.635Z,97.99
2023-12-18T01:34:43.575Z,97.99
2023-12-18T01:35:43.516Z,97.99
2023-12-18T01:36:43.569Z,97.95
2023-12-18T01:37:43.784Z,97.95
2023-12-18T01:38:43.483Z,97.95
2023-12-18T01:39:43.511Z,98.05
2023-12-18T01:40:43.508Z,98.05
2023-12-18T01:41:43.476Z,97.95
2023-12-18T01:42:43.461Z,97.95
2023-12-18T01:43:43.420Z,97.95
2023-12-18T01:44:43.427Z,97.95
2023-12-18T01:45:43.420Z,97.99
2023-12-18T01:46:43.411Z,97.99
2023-12-18T01:47:43.681Z,97.95
2023-12-18T01:48:43.521Z,97.95
2023-12-18T01:49:43.482Z,97.95
2023-12-18T01:50:43.350Z,97.95
2023-12-18T01:51:43.463Z,97.95
2023-12-18T01:52:43.352Z,97.95
2023-12-18T01:53:43.310Z,97.95
2023-12-18T01:54:43.375Z,97.99
2023-12-18T01:55:43.274Z,97.85
2023-12-18T01:56:43.269Z,97.85
2023-12-18T01:57:43.528Z,97.95
2023-12-18T01:58:43.253Z,97.95
2023-12-18T01:59:43.226Z,97.95
2023-12-18T02:00:43.296Z,97.95
2023-12-18T02:01:43.244Z,97.95
2023-12-18T02:02:43.232Z,97.95
2023-12-18T02:03:43.259Z,97.95
2023-12-18T02:04:43.220Z,97.95
2023-12-18T02:05:43.164Z,97.89
2023-12-18T02:06:43.286Z,97.89
2023-12-18T02:07:43.328Z,97.89
2023-12-18T02:08:43.149Z,97.89
2023-12-18T02:09:43.187Z,97.78
2023-12-18T02:10:43.119Z,97.78
2023-12-18T02:11:43.072Z,97.78
2023-12-18T02:12:43.118Z,97.83
2023-12-18T02:13:43.051Z,97.83
2023-12-18T02:14:43.042Z,97.72
2023-12-18T02:15:43.055Z,97.83
2023-12-18T02:16:43.018Z,97.72
2023-12-18T02:17:43.389Z,97.72
2023-12-18T02:18:43.123Z,97.72
2023-12-18T02:19:43.104Z,97.72
2023-12-18T02:20:42.963Z,97.72
2023-12-18T02:21:42.981Z,97.72
2023-12-18T02:22:42.934Z,97.83
2023-12-18T02:23:42.924Z,97.72
2023-12-18T02:24:43.069Z,97.83
2023-12-18T02:25:42.927Z,97.83
2023-12-18T02:26:42.883Z,97.83
2023-12-18T02:27:43.100Z,97.83
2023-12-18T02:28:42.862Z,97.83
2023-12-18T02:29:42.843Z,97.83
2023-12-18T02:30:42.889Z,97.83
2023-12-18T02:31:42.862Z,97.83
2023-12-18T02:32:42.855Z,97.83
2023-12-18T02:33:42.933Z,97.83
2023-12-18T02:34:42.931Z,97.83
2023-12-18T02:35:42.775Z,97.93
2023-12-18T02:36:42.934Z,97.83
2023-12-18T02:37:43.040Z,97.83
2023-12-18T02:38:42.730Z,97.83
2023-12-18T02:39:42.782Z,97.83
2023-12-18T02:40:42.739Z,97.87
2023-12-18T02:41:42.770Z,97.77
2023-12-18T02:42:42.750Z,97.87
2023-12-18T02:43:42.705Z,97.87
2023-12-18T02:44:42.655Z,97.83
2023-12-18T02:45:42.691Z,97.83
2023-12-18T02:46:42.639Z,97.93
2023-12-18T02:47:43.066Z,97.83
2023-12-18T02:48:42.756Z,97.93
2023-12-18T02:49:42.757Z,97.93
2023-12-18T02:50:42.596Z,97.93
2023-12-18T02:51:42.618Z,97.98
2023-12-18T02:52:42.580Z,97.87
2023-12-18T02:53:42.550Z,97.98
2023-12-18T02:54:42.595Z,97.87
2023-12-18T02:55:42.553Z,97.98
2023-12-18T02:56:42.505Z,97.87
2023-12-18T02:57:42.854Z,97.98
2023-12-18T02:58:42.493Z,97.87
2023-12-18T02:59:42.485Z,97.98
2023-12-18T03:00:42.586Z,97.98
2023-12-18T03:01:42.459Z,97.98
2023-12-18T03:02:42.460Z,97.98
2023-12-18T03:03:42.484Z,97.98
2023-12-18T03:04:42.415Z,97.98
2023-12-18T03:05:42.428Z,98.08
2023-12-18T03:06:42.486Z,97.98
2023-12-18T03:07:42.619Z,97.98
2023-12-18T03:08:42.368Z,97.92
2023-12-18T03:09:42.401Z,97.92
2023-12-18T03:10:42.348Z,97.92
2023-12-18T03:11:42.342Z,97.92
2023-12-18T03:12:42.401Z,97.92
2023-12-18T03:13:42.305Z,97.92
2023-12-18T03:14:42.274Z,97.92
2023-12-18T03:15:42.350Z,97.92
2023-12-18T03:16:42.257Z,97.81
2023-12-18T03:17:42.626Z,97.92
2023-12-18T03:18:42.372Z,97.92
2023-12-18T03:19:42.347Z,97.92
2023-12-18T03:20:42.221Z,97.92
2023-12-18T03:21:42.217Z,97.92
2023-12-18T03:22:42.203Z,97.92
2023-12-18T03:23:42.201Z,97.92
2023-12-18T03:24:42.177Z,97.92
2023-12-18T03:25:42.165Z,97.92
2023-12-18T03:26:42.137Z,97.92
2023-12-18T03:27:42.312Z,97.92
2023-12-18T03:28:42.142Z,97.92
2023-12-18T03:29:42.100Z,97.92
2023-12-18T03:30:42.246Z,97.92
2023-12-18T03:31:42.162Z,97.92
2023-12-18T03:32:42.129Z,98.02
2023-12-18T03:33:42.120Z,98.02
2023-12-18T03:34:42.185Z,98.02
2023-12-18T03:35:42.041Z,98.02
2023-12-18T03:36:42.096Z,98.13
2023-12-18T03:37:42.281Z,98.13
2023-12-18T03:38:41.987Z,98.13
2023-12-18T03:39:42.022Z,98.13
2023-12-18T03:40:41.975Z,98.13
2023-12-18T03:41:41.988Z,98.13
2023-12-18T03:42:42.015Z,98.23
2023-12-18T03:43:41.928Z,98.13
2023-12-18T03:44:41.935Z,98.13
2023-12-18T03:45:42.002Z,98.13
2023-12-18T03:46:41.893Z,98.13
2023-12-18T03:47:42.099Z,98.02
2023-12-18T03:48:42.016Z,98.13
2023-12-18T04:03:19.781Z,97.92
2023-12-18T04:04:19.925Z,98.02
2023-12-18T04:05:19.785Z,98.02
2023-12-18T04:06:19.703Z,97.92
2023-12-18T04:07:19.716Z,97.92
2023-12-18T04:08:19.657Z,97.92
2023-12-18T04:09:19.712Z,98.02
2023-12-18T04:10:19.686Z,97.92
2023-12-18T04:11:19.629Z,98.02
2023-12-18T04:12:19.667Z,98.02
2023-12-18T04:13:19.591Z,98.02
2023-12-18T04:14:19.605Z,98.02
2023-12-18T04:15:19.581Z,98.13
2023-12-18T04:16:19.563Z,98.13
2023-12-18T04:17:19.564Z,98.13
2023-12-18T04:18:19.683Z,98.02
2023-12-18T04:19:19.697Z,98.02
2023-12-18T04:20:19.518Z,97.92
2023-12-18T04:21:19.581Z,98.02
2023-12-18T04:22:19.506Z,97.92
2023-12-18T04:23:28.014Z,97.92
2023-12-18T04:24:20.817Z,98.02
2023-12-18T04:25:19.471Z,98.02
2023-12-18T04:26:19.435Z,98.02
2023-12-18T04:27:19.483Z,98.02
2023-12-18T04:28:19.441Z,98.02
2023-12-18T04:29:19.427Z,98.02
2023-12-18T04:30:19.496Z,98.02
2023-12-18T04:31:19.559Z,98.02
2023-12-18T04:32:19.377Z,98.02
2023-12-18T04:33:19.479Z,98.02
2023-12-18T04:34:19.569Z,98.02
2023-12-18T04:35:19.337Z,98.13
2023-12-18T04:36:19.345Z,98.02
2023-12-18T04:37:19.470Z,98.13
2023-12-18T04:38:19.292Z,98.13
2023-12-18T04:39:19.425Z,98.13
2023-12-18T04:40:19.309Z,98.08
2023-12-18T04:41:19.274Z,98.08
2023-12-18T04:42:19.268Z,98.08
2023-12-18T04:43:19.235Z,97.98
2023-12-18T04:44:19.218Z,97.98
2023-12-18T04:45:19.288Z,98.08
2023-12-18T04:46:19.205Z,98.08
2023-12-18T04:47:19.200Z,98.02
2023-12-18T04:48:19.310Z,98.02
2023-12-18T04:49:19.255Z,97.92
2023-12-18T04:50:19.172Z,97.92
2023-12-18T04:51:19.201Z,97.81
2023-12-18T04:52:19.172Z,97.86
2023-12-18T04:53:19.112Z,97.86
2023-12-18T04:54:19.139Z,97.75
2023-12-18T04:55:19.095Z,97.75
2023-12-18T04:56:19.081Z,97.86
2023-12-18T04:57:19.161Z,97.86
2023-12-18T04:58:19.082Z,97.86
2023-12-18T04:59:19.034Z,97.86
2023-12-18T05:00:19.052Z,97.86
2023-12-18T05:01:19.109Z,97.86
2023-12-18T05:02:18.997Z,97.96
2023-12-18T05:03:19.112Z,97.96
2023-12-18T05:04:19.108Z,97.96
2023-12-18T05:05:19.089Z,97.86
2023-12-18T05:06:19.009Z,97.86
2023-12-18T05:07:18.949Z,98.00
2023-12-18T05:08:18.929Z,97.90
2023-12-18T05:09:18.981Z,97.90
2023-12-18T05:10:18.950Z,97.90
2023-12-18T05:11:18.920Z,97.90
2023-12-18T05:12:18.961Z,98.00
2023-12-18T05:13:18.871Z,97.96
2023-12-18T05:14:18.860Z,97.90
2023-12-18T05:15:18.985Z,97.90
2023-12-18T05:16:18.853Z,98.00
2023-12-18T05:17:19.222Z,97.90
2023-12-18T05:18:19.099Z,97.90
2023-12-18T05:19:18.928Z,97.90
2023-12-18T05:20:18.781Z,97.90
2023-12-18T05:21:18.790Z,97.90
2023-12-18T05:22:18.779Z,97.80
2023-12-18T05:23:18.757Z,97.90
2023-12-18T05:24:18.766Z,97.80
2023-12-18T05:25:18.716Z,97.90
2023-12-18T05:26:18.712Z,97.90
2023-12-18T05:27:18.844Z,97.90
2023-12-18T05:28:18.684Z,97.90
2023-12-18T05:29:18.700Z,97.80
2023-12-18T05:30:18.720Z,97.90
2023-12-18T05:31:18.792Z,97.90
2023-12-18T05:32:18.653Z,97.80
2023-12-18T05:33:18.761Z,97.94
2023-12-18T05:34:18.731Z,97.84
2023-12-18T05:35:18.622Z,97.84
2023-12-18T05:36:18.613Z,97.84
2023-12-18T05:37:18.584Z,97.84
2023-12-18T05:38:18.554Z,97.84
2023-12-18T05:39:18.590Z,97.74
2023-12-18T05:40:18.524Z,97.84
2023-12-18T05:41:18.550Z,97.84
2023-12-18T05:42:18.533Z,97.94
2023-12-18T05:43:18.514Z,97.94
2023-12-18T05:44:18.505Z,97.94
2023-12-18T05:45:18.539Z,98.00
2023-12-18T05:46:18.451Z,98.00
2023-12-18T05:47:18.459Z,98.00
2023-12-18T05:48:18.585Z,98.05
2023-12-18T05:49:18.543Z,98.00
2023-12-18T05:50:18.411Z,98.00
2023-12-18T05:51:18.460Z,98.00
2023-12-18T05:52:18.399Z,98.00
2023-12-18T05:53:18.384Z,98.00
2023-12-18T05:54:18.419Z,98.00
2023-12-18T05:55:18.357Z,98.11
2023-12-18T05:56:18.373Z,98.11
2023-12-18T05:57:18.777Z,98.11
2023-12-18T05:58:18.325Z,98.11
2023-12-18T05:59:18.339Z,98.11
2023-12-18T06:00:18.306Z,98.11
2023-12-18T06:01:18.316Z,98.22
2023-12-18T06:02:18.267Z,98.11
2023-12-18T06:03:18.337Z,98.11
2023-12-18T06:04:18.329Z,98.11
2023-12-18T06:05:18.234Z,98.11
2023-12-18T06:06:18.268Z,98.11
2023-12-18T06:07:18.236Z,98.11
2023-12-18T06:08:18.192Z,98.00
2023-12-18T06:09:18.229Z,98.00
2023-12-18T06:10:18.167Z,98.00
2023-12-18T06:11:18.155Z,98.00
2023-12-18T06:12:18.225Z,98.00
2023-12-18T06:13:18.132Z,98.05
2023-12-18T06:14:18.115Z,97.94
2023-12-18T06:15:18.124Z,97.94
2023-12-18T06:16:18.073Z,97.84
2023-12-18T06:17:18.104Z,97.84
2023-12-18T06:18:18.172Z,97.84
2023-12-18T06:19:18.174Z,97.84
2023-12-18T06:20:18.032Z,97.84
2023-12-18T06:21:18.065Z,97.94
2023-12-18T06:22:18.011Z,97.94
2023-12-18T06:23:18.099Z,97.90
2023-12-18T06:24:17.987Z,97.90
2023-12-18T06:25:17.981Z,97.90
2023-12-18T06:26:17.979Z,97.90
2023-12-18T06:27:17.972Z,97.90
2023-12-18T06:28:17.979Z,97.90
2023-12-18T06:29:17.961Z,98.00
2023-12-18T06:30:18.038Z,97.90
2023-12-18T06:31:18.085Z,98.00
2023-12-18T06:32:17.893Z,97.90
2023-12-18T06:33:18.028Z,97.90
2023-12-18T06:34:17.989Z,98.00
2023-12-18T06:35:17.874Z,98.00
2023-12-18T06:36:17.871Z,98.00
2023-12-18T06:37:17.822Z,98.00
2023-12-18T06:38:17.822Z,98.00
2023-12-18T06:39:17.881Z,98.00
2023-12-18T06:40:17.802Z,97.90
2023-12-18T06:41:17.794Z,97.90
2023-12-18T06:42:17.873Z,97.90
2023-12-18T06:43:17.769Z,97.90
2023-12-18T06:44:17.746Z,97.80
2023-12-18T06:45:17.791Z,97.80
2023-12-18T06:46:17.711Z,97.84
2023-12-18T06:47:17.763Z,97.80
2023-12-18T06:48:17.832Z,97.90
2023-12-18T06:49:17.727Z,97.90
2023-12-18T06:50:17.674Z,97.90
2023-12-18T06:51:17.712Z,97.90
2023-12-18T06:52:17.653Z,97.94
2023-12-18T06:53:17.641Z,97.80
2023-12-18T06:54:17.624Z,97.94
2023-12-18T06:55:17.608Z,97.90
2023-12-18T06:56:17.602Z,97.90
2023-12-18T06:57:17.644Z,97.90
2023-12-18T06:58:17.564Z,97.90
2023-12-18T06:59:17.572Z,97.94
2023-12-18T07:00:17.589Z,97.94
2023-12-18T07:01:17.656Z,97.94
2023-12-18T07:02:17.552Z,97.94
2023-12-18T07:03:17.543Z,97.94
2023-12-18T07:04:17.525Z,97.94
2023-12-18T07:05:17.577Z,97.94
2023-12-18T07:06:17.496Z,97.94
2023-12-18T07:07:17.479Z,97.94
2023-12-18T07:08:17.443Z,97.84
2023-12-18T07:09:17.482Z,97.84
2023-12-18T07:10:17.511Z,97.74
2023-12-18T07:11:17.405Z,97.78
2023-12-18T07:12:17.433Z,97.78
2023-12-18T07:13:17.399Z,97.78
2023-12-18T07:14:17.378Z,97.78
2023-12-18T07:15:17.391Z,97.67
2023-12-18T07:16:17.363Z,97.67
2023-12-18T07:17:17.341Z,97.67
2023-12-18T07:18:17.442Z,97.67
2023-12-18T07:19:17.446Z,97.78
2023-12-18T07:20:17.303Z,97.74
2023-12-18T07:21:17.318Z,97.74
2023-12-18T07:22:17.297Z,97.84
2023-12-18T07:23:17.309Z,97.84
2023-12-18T07:24:17.289Z,97.84
2023-12-18T07:25:17.254Z,97.84
2023-12-18T07:26:17.217Z,97.78
2023-12-18T07:27:17.299Z,97.67
2023-12-18T07:28:17.208Z,97.67
2023-12-18T07:29:17.225Z,97.67
2023-12-18T07:30:17.258Z,97.67
2023-12-18T07:31:17.324Z,97.67
2023-12-18T07:32:17.164Z,97.57
2023-12-18T07:33:17.477Z,97.57
2023-12-18T07:34:17.266Z,97.57
2023-12-18T07:35:17.110Z,97.57
2023-12-18T07:36:17.128Z,97.67
2023-12-18T07:37:17.091Z,97.67
2023-12-18T07:38:17.105Z,97.78
2023-12-18T07:39:17.089Z,97.78
2023-12-18T07:40:17.066Z,97.78
2023-12-18T07:41:17.039Z,97.88
2023-12-18T07:42:17.041Z,97.78
2023-12-18T07:43:17.026Z,97.84
2023-12-18T07:44:17.020Z,97.74
2023-12-18T07:45:17.043Z,97.84
2023-12-18T07:46:16.979Z,97.88
2023-12-18T07:47:16.967Z,97.74
2023-12-18T07:48:17.086Z,97.84
2023-12-18T07:49:17.027Z,97.84
2023-12-18T07:50:16.968Z,97.94
2023-12-18T07:51:16.960Z,97.84
2023-12-18T07:52:16.907Z,97.94
2023-12-18T07:53:16.890Z,97.90
2023-12-18T07:54:16.895Z,97.90
2023-12-18T07:55:16.860Z,97.90
2023-12-18T07:56:16.873Z,97.90
2023-12-18T07:57:16.858Z,97.90
2023-12-18T07:58:16.841Z,97.90
2023-12-18T07:59:17.004Z,97.90
2023-12-18T08:00:16.844Z,97.96
2023-12-18T08:01:19.725Z,97.96
2023-12-18T08:02:16.774Z,97.96
2023-12-18T08:03:16.913Z,98.07
2023-12-18T08:04:16.832Z,98.02
2023-12-18T08:05:16.801Z,98.02
2023-12-18T08:06:16.799Z,97.92
2023-12-18T08:07:16.730Z,98.02
2023-12-18T08:08:16.698Z,97.92
2023-12-18T08:09:16.707Z,98.02
2023-12-18T08:10:16.690Z,97.92
2023-12-18T08:11:16.662Z,97.92
2023-12-18T08:12:16.668Z,97.92
2023-12-18T08:13:16.650Z,97.92
2023-12-18T08:14:16.635Z,97.87
2023-12-18T08:15:16.714Z,97.87
2023-12-18T08:16:16.613Z,97.87
2023-12-18T08:17:16.594Z,97.77
2023-12-18T08:18:16.877Z,97.77
2023-12-18T08:19:16.738Z,97.77
2023-12-18T08:20:16.557Z,97.66
2023-12-18T08:21:16.632Z,97.56
2023-12-18T08:22:16.587Z,97.56
2023-12-18T08:23:16.517Z,97.45
2023-12-18T08:24:16.529Z,97.35
2023-12-18T08:25:16.495Z,97.45
2023-12-18T08:26:16.509Z,97.41
2023-12-18T08:27:16.522Z,97.41
2023-12-18T08:28:16.602Z,97.30
2023-12-18T08:29:16.440Z,97.26
2023-12-18T08:30:16.518Z,97.32
2023-12-18T08:31:16.537Z,97.32
2023-12-18T08:32:16.427Z,97.06
2023-12-18T08:33:16.562Z,96.96
2023-12-18T08:34:16.472Z,96.96
2023-12-18T08:35:16.382Z,96.71
2023-12-18T08:36:16.415Z,96.39
2023-12-18T08:37:16.344Z,96.35
2023-12-18T08:38:16.345Z,96.37
2023-12-18T08:39:16.369Z,95.97
2023-12-18T08:40:16.326Z,95.31
2023-12-18T08:41:16.304Z,93.48
2023-12-18T08:42:16.316Z,90.44
2023-12-18T08:43:16.271Z,87.19
2023-12-18T08:44:16.276Z,84.07
2023-12-18T08:45:16.348Z,80.64
2023-12-18T08:46:16.251Z,77.81
2023-12-18T08:47:16.254Z,73.43
2023-12-18T08:48:16.293Z,70.86
2023-12-18T08:49:16.346Z,68.53
2023-12-18T08:50:16.214Z,66.72
2023-12-18T08:51:17.562Z,65.14
2023-12-18T08:52:16.182Z,64.06
2023-12-18T08:53:16.137Z,63.42
2023-12-18T08:54:16.164Z,62.02
2023-12-18T08:55:16.156Z,61.30
2023-12-18T08:56:16.106Z,60.49
2023-12-18T08:57:16.123Z,59.46
2023-12-18T08:58:16.079Z,59.53
2023-12-18T08:59:16.084Z,59.64
2023-12-18T09:00:16.140Z,59.00
2023-12-18T09:01:16.138Z,58.69
2023-12-18T09:02:16.039Z,58.66
2023-12-18T09:03:16.095Z,58.25
2023-12-18T09:04:16.084Z,58.43
2023-12-18T09:05:16.665Z,58.29
2023-12-18T09:06:16.059Z,56.63
2023-12-18T09:07:15.962Z,56.84
2023-12-18T09:08:15.958Z,56.74
2023-12-18T09:09:15.976Z,56.74
2023-12-18T09:10:15.952Z,56.51
2023-12-18T09:11:15.927Z,56.71
2023-12-18T09:12:15.973Z,56.51
2023-12-18T09:13:15.889Z,56.63
2023-12-18T09:14:15.878Z,57.04
2023-12-18T09:15:15.918Z,57.66
2023-12-18T09:16:15.858Z,57.15
2023-12-18T09:17:15.834Z,57.04
2023-12-18T09:18:16.010Z,56.51
2023-12-18T09:19:15.913Z,56.61
2023-12-18T09:20:15.804Z,56.43
2023-12-18T09:21:15.808Z,56.02
2023-12-18T09:22:15.787Z,57.25
2023-12-18T09:23:15.750Z,57.04
2023-12-18T09:24:15.813Z,56.87
2023-12-18T09:25:15.756Z,57.38
2023-12-18T09:26:15.745Z,57.40
2023-12-18T09:27:15.780Z,58.15
2023-12-18T09:28:15.698Z,58.76
2023-12-18T09:29:15.687Z,59.20
2023-12-18T09:30:15.829Z,59.09
2023-12-18T09:31:15.754Z,60.46
2023-12-18T09:32:15.702Z,61.00
2023-12-18T09:33:15.755Z,61.51
2023-12-18T09:34:15.764Z,62.43
2023-12-18T09:35:15.639Z,60.72
2023-12-18T09:36:15.678Z,61.10
2023-12-18T09:37:15.578Z,61.07
2023-12-18T09:38:15.572Z,59.53
2023-12-18T09:39:15.571Z,59.66
2023-12-18T09:40:15.568Z,62.02
2023-12-18T09:41:15.520Z,61.58
2023-12-18T09:42:18.181Z,61.69
2023-12-18T09:43:15.489Z,60.56
2023-12-18T09:44:15.527Z,60.12
2023-12-18T09:45:15.502Z,60.02
2023-12-18T09:46:16.127Z,59.64
2023-12-18T09:47:15.444Z,60.28
2023-12-18T10:03:51.595Z,62.83
2023-12-18T10:04:51.405Z,62.83
2023-12-18T10:05:51.560Z,62.52
2023-12-18T10:06:51.437Z,62.73
2023-12-18T10:07:51.338Z,62.70
2023-12-18T10:08:51.337Z,62.11
2023-12-18T10:09:51.451Z,62.85
2023-12-18T10:10:51.313Z,63.50
2023-12-18T10:11:53.930Z,63.71
2023-12-18T10:12:51.347Z,63.94
2023-12-18T10:13:51.281Z,65.28
2023-12-18T10:14:51.261Z,65.31
2023-12-18T10:15:51.304Z,66.13
2023-12-18T10:16:51.234Z,66.20
2023-12-18T10:17:51.271Z,64.87
2023-12-18T10:18:51.427Z,65.48
2023-12-18T10:19:51.307Z,66.61
2023-12-18T10:20:51.175Z,65.38
2023-12-18T10:21:51.236Z,66.69
2023-12-18T10:22:51.152Z,66.79
2023-12-18T10:23:51.188Z,65.56
2023-12-18T10:24:51.187Z,64.25
2023-12-18T10:25:51.114Z,66.20
2023-12-18T10:26:51.117Z,66.03
2023-12-18T10:27:51.175Z,66.20
2023-12-18T10:28:51.093Z,66.13
2023-12-18T10:29:51.108Z,66.41
2023-12-18T10:30:51.144Z,66.82
2023-12-18T10:31:51.146Z,66.51
2023-12-18T10:32:51.100Z,65.92
2023-12-18T10:33:51.128Z,66.13
2023-12-18T10:34:51.033Z,67.88
2023-12-18T10:35:50.974Z,66.72
2023-12-18T10:36:50.995Z,66.13
2023-12-18T10:37:50.959Z,65.72
2023-12-18T10:38:50.957Z,65.72
2023-12-18T10:39:50.963Z,66.96
2023-12-18T10:40:50.953Z,68.70
2023-12-18T10:41:50.901Z,67.98
2023-12-18T10:42:51.260Z,68.91
2023-12-18T10:43:50.881Z,68.60
2023-12-18T10:44:50.872Z,68.43
2023-12-18T10:45:50.934Z,67.30
2023-12-18T10:46:50.836Z,67.60
2023-12-18T10:47:50.827Z,68.02
2023-12-18T10:48:51.002Z,69.76
2023-12-18T10:49:50.944Z,70.48
2023-12-18T10:50:50.811Z,70.69
2023-12-18T10:51:50.813Z,69.84
2023-12-18T10:52:50.760Z,67.50
2023-12-18T10:53:50.763Z,67.91
2023-12-18T10:54:50.762Z,67.06
2023-12-18T10:55:50.714Z,67.36
2023-12-18T10:56:50.734Z,67.98
2023-12-18T10:57:50.717Z,67.65
2023-12-18T10:58:50.683Z,68.46
2023-12-18T10:59:50.676Z,68.64
2023-12-18T11:00:50.746Z,67.17
2023-12-18T11:01:50.650Z,66.83
2023-12-18T11:02:50.725Z,65.80
2023-12-18T11:03:50.714Z,65.77
2023-12-18T11:04:50.614Z,65.67
2023-12-18T11:05:50.596Z,63.10
2023-12-18T11:06:50.606Z,64.34
2023-12-18T11:07:50.567Z,63.85
2023-12-18T11:08:50.555Z,64.47
2023-12-18T11:09:50.783Z,65.36
2023-12-18T11:10:50.544Z,63.62
2023-12-18T11:11:50.514Z,63.85
2023-12-18T11:12:50.611Z,63.75
2023-12-18T11:13:50.498Z,64.06
2023-12-18T11:14:50.471Z,65.19
2023-12-18T11:15:50.502Z,64.16
2023-12-18T11:16:50.470Z,64.37
2023-12-18T11:17:50.501Z,64.44
2023-12-18T11:18:50.598Z,64.95
2023-12-18T11:19:50.490Z,65.67
2023-12-18T11:20:50.408Z,65.77
2023-12-18T11:21:50.634Z,64.03
2023-12-18T11:22:50.404Z,65.33
2023-12-18T11:23:56.110Z,63.49
2023-12-18T11:24:51.389Z,63.49
2023-12-18T11:25:52.477Z,62.87
2023-12-18T11:26:50.312Z,62.39
2023-12-18T11:27:50.321Z,62.73
2023-12-18T11:28:50.308Z,62.73
2023-12-18T11:29:50.445Z,63.96
2023-12-18T11:30:50.358Z,64.78
2023-12-18T11:31:50.285Z,65.47
2023-12-18T11:32:57.259Z,65.06
2023-12-18T11:34:00.062Z,63.42
2023-12-18T11:34:50.277Z,64.13
2023-12-18T11:35:50.411Z,63.82
2023-12-18T11:36:50.264Z,64.13
2023-12-18T11:37:50.236Z,64.51
2023-12-18T11:38:50.156Z,63.49
2023-12-18T11:39:50.167Z,64.59
2023-12-18T11:40:57.163Z,63.15
2023-12-18T11:41:57.133Z,63.25
2023-12-18T11:42:57.680Z,64.97
2023-12-18T11:43:50.096Z,64.97
2023-12-18T11:44:50.077Z,64.04
2023-12-18T11:45:50.081Z,62.40
2023-12-18T11:46:57.290Z,63.02
2023-12-18T11:47:50.103Z,64.65
2023-12-18T11:48:57.187Z,64.25
2023-12-18T11:49:57.214Z,65.58
2023-12-18T11:50:50.032Z,65.37
2023-12-18T11:51:58.101Z,62.81
2023-12-18T11:52:49.975Z,64.35
2023-12-18T11:53:49.983Z,62.40
2023-12-18T11:54:50.092Z,63.43
2023-12-18T11:55:49.946Z,62.30
2023-12-18T11:56:49.955Z,62.02
2023-12-18T11:57:49.949Z,63.25
2023-12-18T11:58:49.920Z,63.35
2023-12-18T11:59:49.903Z,62.95
2023-12-18T12:00:49.996Z,63.18
2023-12-18T12:01:49.865Z,62.46
2023-12-18T12:02:49.850Z,63.59
2023-12-18T12:03:49.907Z,64.10
2023-12-18T12:04:49.887Z,63.28
2023-12-18T12:05:49.855Z,62.46
2023-12-18T12:06:49.932Z,62.87
2023-12-18T12:07:49.812Z,62.05
2023-12-18T12:08:49.800Z,62.74
2023-12-18T12:09:49.837Z,61.58
2023-12-18T12:10:49.768Z,61.07
2023-12-18T12:11:49.753Z,61.76
2023-12-18T12:12:49.810Z,60.19
2023-12-18T12:13:49.772Z,59.66
2023-12-18T12:14:49.695Z,59.12
2023-12-18T12:15:49.692Z,58.50
2023-12-18T12:16:49.693Z,58.50
2023-12-18T12:17:49.740Z,58.53
2023-12-18T12:18:49.818Z,59.35
2023-12-18T12:19:49.716Z,59.83
2023-12-18T12:20:49.616Z,59.55
2023-12-18T12:21:49.660Z,59.66
2023-12-18T12:22:49.615Z,59.45
2023-12-18T12:23:49.593Z,59.35
2023-12-18T12:24:49.636Z,59.55
2023-12-18T12:25:49.591Z,59.76
2023-12-18T12:26:49.565Z,59.35
2023-12-18T12:27:49.598Z,59.53
2023-12-18T12:28:49.858Z,60.72
2023-12-18T12:29:49.504Z,59.37
2023-12-18T12:30:49.596Z,58.45
2023-12-18T12:31:53.860Z,57.22
2023-12-18T12:32:50.554Z,58.14
2023-12-18T12:33:50.190Z,59.03
2023-12-18T12:34:49.645Z,58.01
2023-12-18T12:35:49.446Z,59.75
2023-12-18T12:36:49.516Z,60.87
2023-12-18T12:37:49.405Z,59.55
2023-12-18T12:38:49.382Z,60.67
2023-12-18T12:39:49.504Z,60.46
2023-12-18T12:40:49.397Z,61.69
2023-12-18T12:41:49.359Z,62.40
2023-12-18T12:42:49.422Z,62.61
2023-12-18T12:43:49.409Z,61.08
2023-12-18T12:44:49.309Z,60.05
2023-12-18T12:45:49.312Z,61.90
2023-12-18T12:46:49.306Z,61.10
2023-12-18T12:47:49.312Z,59.88
2023-12-18T12:48:49.545Z,60.16
2023-12-18T12:49:49.323Z,61.49
2023-12-18T12:50:49.261Z,62.58
2023-12-18T12:51:49.425Z,58.70
2023-12-18T12:52:49.207Z,56.86
2023-12-18T12:53:49.196Z,57.04
2023-12-18T12:54:49.229Z,56.94
2023-12-18T12:55:49.175Z,55.82
2023-12-18T12:56:49.161Z,55.82
2023-12-18T12:57:49.244Z,56.53
2023-12-18T12:58:49.153Z,58.67
2023-12-18T12:59:49.123Z,59.28
2023-12-18T13:00:49.192Z,59.21
2023-12-18T13:01:49.159Z,58.91
2023-12-18T13:02:49.094Z,61.05
2023-12-18T13:03:49.212Z,58.70
2023-12-18T13:04:49.071Z,59.95
2023-12-18T13:05:49.117Z,60.87
2023-12-18T13:06:56.107Z,61.00
2023-12-18T13:07:49.036Z,61.10
2023-12-18T13:08:49.040Z,62.77
2023-12-18T13:09:49.068Z,65.02
2023-12-18T13:10:49.074Z,64.33
2023-12-18T13:11:48.973Z,61.67
2023-12-18T13:12:49.092Z,65.15
2023-12-18T13:13:50.175Z,61.06
2023-12-18T13:14:48.923Z,64.54
2023-12-18T13:15:49.036Z,65.59
2023-12-18T13:16:48.913Z,65.49
2023-12-18T13:17:48.920Z,66.82
2023-12-18T13:18:49.041Z,67.84
2023-12-18T13:19:48.987Z,68.87
2023-12-18T13:20:48.871Z,69.20
2023-12-18T13:21:48.873Z,69.00